Impacts TAF Board
For situational awareness. Not to be used for flight planning purposes.
IDs:

KLGA - New York/La Guardia, NY, US

Issued at 0212 UTC 18 Oct 2018
Updated at 0438 UTC 18 Oct 2018
Potential Impact None Slight Moderate High
Time<<18/17Z 18/18Z 18/19Z 18/20Z 18/21Z 18/22Z 18/23Z 19/00Z 19/01Z 19/02Z 19/03Z 19/04Z 19/05Z>>
Type PRVL PRVL PRVL PRVL PRVL PRVL PRVL PRVL PRVL PRVL PRVL PRVL PRVL
VIS >6 >6 >6 >6 >6 >6 >6 >6 >6 >6 >6 >6 >6
CIG -- -- -- -- -- -- -- -- -- -- -- -- --
Cover FEW FEW FEW FEW FEW FEW FEW FEW FEW FEW FEW FEW FEW
FltCat VFR VFR VFR VFR VFR VFR VFR VFR VFR VFR VFR VFR VFR
WX -- -- -- -- -- -- -- -- -- -- -- -- --
WDir 300 300 300 300 300 300 300 300 300 300 300 300 300
WSpd 16 16 16 16 16 16 16 13 13 9 9 9 9
WGst 24 24 24 24 24 24 24 -- -- -- -- -- --
Raw TAF
KLGA 180212Z 1802/1906 30018G26KT P6SM FEW060
  FM181000 32017G24KT P6SM FEW060
  FM181700 30016G24KT P6SM FEW060
  FM190000 30013KT P6SM FEW250
  FM190200 30009KT P6SM FEW250


METAR Board
Radar Display
Forecast Discussion
For situational awareness. Not to be used for flight planning purposes.